createdAt,value
2022-12-13T00:01:44.206Z,11.57
2022-12-13T00:04:12.252Z,9.82
2022-12-13T00:06:39.391Z,10.80
2022-12-13T00:09:06.813Z,12.55
2022-12-13T00:11:34.029Z,10.57
2022-12-13T00:14:01.957Z,9.30
2022-12-13T00:16:29.129Z,8.63
2022-12-13T00:18:59.979Z,8.38
2022-12-13T00:21:31.828Z,7.80
2022-12-13T00:24:00.317Z,8.40
2022-12-13T00:26:30.179Z,9.00
2022-12-13T00:29:02.166Z,9.55
2022-12-13T00:34:19.594Z,14.32
2022-12-13T00:36:46.939Z,12.20
2022-12-13T00:39:19.098Z,13.55
2022-12-13T00:41:47.550Z,12.43
2022-12-13T00:44:15.366Z,11.50
2022-12-13T00:46:47.039Z,10.90
2022-12-13T00:49:14.900Z,12.40
2022-12-13T00:51:41.934Z,11.10
2022-12-13T00:54:10.594Z,9.35
2022-12-13T00:56:38.495Z,10.80
2022-12-13T00:59:05.965Z,8.93
2022-12-13T01:01:36.511Z,8.98
2022-12-13T01:04:06.094Z,9.10
2022-12-13T01:06:39.202Z,14.65
2022-12-13T01:09:12.441Z,21.55
2022-12-13T01:11:40.053Z,16.92
2022-12-13T01:14:07.553Z,12.23
2022-12-13T01:16:34.675Z,7.72
2022-12-13T01:19:02.131Z,9.18
2022-12-13T01:21:29.811Z,9.88
2022-12-13T01:24:03.387Z,12.77
2022-12-13T01:26:31.256Z,10.70
2022-12-13T01:28:58.886Z,8.25
2022-12-13T01:31:26.560Z,8.50
2022-12-13T01:33:53.982Z,7.30
2022-12-13T01:36:27.487Z,7.30
2022-12-13T01:38:58.786Z,8.35
2022-12-13T01:41:28.216Z,8.07
2022-12-13T01:44:03.032Z,8.30
2022-12-13T01:46:32.780Z,15.88
2022-12-13T01:49:19.090Z,9.35
2022-12-13T01:52:00.216Z,10.73
2022-12-13T01:54:34.383Z,8.82
2022-12-13T01:57:05.743Z,5.57
2022-12-13T01:59:35.543Z,7.22
2022-12-13T02:02:02.850Z,7.38
2022-12-13T02:04:44.262Z,7.72
2022-12-13T02:07:23.160Z,5.55
2022-12-13T02:09:57.665Z,5.85
2022-12-13T02:12:29.450Z,5.47
2022-12-13T02:15:00.619Z,5.93
2022-12-13T02:17:45.416Z,8.45
2022-12-13T02:20:38.344Z,5.68
2022-12-13T02:23:35.036Z,24.23
2022-12-13T02:26:46.701Z,6.05
2022-12-13T02:29:38.417Z,7.13
2022-12-13T02:32:15.658Z,5.45
2022-12-13T02:34:51.338Z,5.10
2022-12-13T02:37:23.713Z,4.57
2022-12-13T02:40:00.909Z,5.32
2022-12-13T02:42:36.450Z,4.18
2022-12-13T02:45:18.686Z,5.50
2022-12-13T02:47:49.865Z,5.72
2022-12-13T02:50:17.823Z,5.18
2022-12-13T02:52:46.644Z,5.90
2022-12-13T02:55:16.766Z,5.85
2022-12-13T02:57:46.343Z,4.25
2022-12-13T03:00:44.070Z,5.35
2022-12-13T03:03:42.626Z,7.78
2022-12-13T03:06:33.557Z,5.53
2022-12-13T03:09:25.471Z,5.25
2022-12-13T03:12:29.065Z,5.55
2022-12-13T03:15:18.570Z,4.53
2022-12-13T03:18:01.981Z,4.90
2022-12-13T03:20:31.223Z,3.80
2022-12-13T03:22:59.245Z,4.82
2022-12-13T03:25:31.514Z,3.88
2022-12-13T03:28:02.085Z,4.32
2022-12-13T03:30:33.932Z,4.85
2022-12-13T03:33:01.639Z,5.05
2022-12-13T03:35:34.444Z,4.10
2022-12-13T03:38:21.523Z,4.15
2022-12-13T03:41:06.456Z,4.80
2022-12-13T03:43:33.770Z,3.88
2022-12-13T03:46:01.366Z,4.30
2022-12-13T03:48:28.482Z,4.38
2022-12-13T03:50:56.795Z,5.07
2022-12-13T03:53:33.512Z,5.68
2022-12-13T03:56:04.125Z,5.97
2022-12-13T03:58:35.839Z,5.70
2022-12-13T04:01:12.075Z,5.55
2022-12-13T04:03:40.974Z,4.03
2022-12-13T04:06:09.432Z,5.13
2022-12-13T04:08:38.323Z,7.40
2022-12-13T04:11:25.343Z,7.15
2022-12-13T04:13:53.837Z,29.08
2022-12-13T04:16:21.930Z,13.98
2022-12-13T04:18:48.974Z,23.67
2022-12-13T04:21:16.657Z,9.80
2022-12-13T04:23:43.800Z,10.05
2022-12-13T04:26:11.242Z,18.48
2022-12-13T04:28:38.382Z,16.10
2022-12-13T04:31:22.397Z,35.47
2022-12-13T04:33:55.101Z,44.08
2022-12-13T04:36:32.097Z,63.50
2022-12-13T04:39:22.288Z,54.03
2022-12-13T04:41:51.912Z,103.32
2022-12-13T04:44:28.747Z,32.53
2022-12-13T04:47:01.097Z,17.70
2022-12-13T04:49:30.217Z,15.45
2022-12-13T04:52:01.125Z,14.82
2022-12-13T04:54:36.663Z,9.48
2022-12-13T04:57:10.040Z,7.25
2022-12-13T04:59:38.182Z,8.50
2022-12-13T05:02:06.916Z,6.68
2022-12-13T05:04:34.497Z,4.65
2022-12-13T05:07:34.288Z,4.78
2022-12-13T05:10:09.615Z,4.63
2022-12-13T05:12:37.104Z,4.82
2022-12-13T05:15:04.846Z,5.28
2022-12-13T05:17:44.602Z,5.40
2022-12-13T05:20:12.168Z,5.40
2022-12-13T05:22:39.437Z,6.20
2022-12-13T05:25:30.362Z,5.65
2022-12-13T05:27:57.904Z,6.18
2022-12-13T05:30:24.967Z,5.78
2022-12-13T05:32:52.483Z,4.75
2022-12-13T05:35:22.797Z,6.18
2022-12-13T05:37:53.358Z,6.15
2022-12-13T05:40:27.257Z,6.05
2022-12-13T05:43:00.871Z,5.90
2022-12-13T05:45:30.639Z,10.02
2022-12-13T05:47:58.332Z,19.48
2022-12-13T05:50:25.909Z,52.85
2022-12-13T05:52:54.400Z,37.83
2022-12-13T05:55:21.755Z,31.20
2022-12-13T05:57:50.390Z,30.23
2022-12-13T06:00:29.101Z,35.05
2022-12-13T06:03:00.471Z,61.35
2022-12-13T06:05:30.063Z,42.20
2022-12-13T06:07:58.498Z,53.63
2022-12-13T06:10:34.383Z,31.50
2022-12-13T06:13:21.686Z,31.25
2022-12-13T06:16:01.677Z,22.60
2022-12-13T06:18:33.942Z,17.95
2022-12-13T06:21:05.132Z,23.27
2022-12-13T06:23:34.094Z,17.00
2022-12-13T06:26:07.737Z,22.98
2022-12-13T06:28:35.203Z,21.45
2022-12-13T06:31:03.567Z,27.08
2022-12-13T06:33:35.506Z,25.65
2022-12-13T06:36:03.680Z,18.77
2022-12-13T06:38:32.702Z,22.20
2022-12-13T06:41:14.256Z,20.25
2022-12-13T06:43:46.408Z,12.57
2022-12-13T06:46:14.930Z,11.43
2022-12-13T06:48:42.182Z,20.30
2022-12-13T06:51:09.721Z,11.15
2022-12-13T06:53:39.508Z,9.65
2022-12-13T06:56:12.059Z,10.38
2022-12-13T06:58:40.521Z,9.60
2022-12-13T07:01:24.218Z,12.38
2022-12-13T07:03:56.268Z,18.00
2022-12-13T07:06:25.254Z,24.02
2022-12-13T07:08:57.177Z,11.75
2022-12-13T07:11:29.753Z,10.13
2022-12-13T07:13:57.620Z,12.40
2022-12-13T07:16:25.317Z,11.55
2022-12-13T07:19:01.358Z,11.18
2022-12-13T07:21:30.274Z,31.48
2022-12-13T07:23:57.736Z,28.25
2022-12-13T07:26:25.222Z,17.58
2022-12-13T07:28:55.394Z,22.95
2022-12-13T07:31:24.682Z,30.55
2022-12-13T07:33:52.973Z,20.42
2022-12-13T07:36:22.439Z,29.60
2022-12-13T07:38:54.988Z,26.55
2022-12-13T07:41:24.278Z,21.92
2022-12-13T07:43:55.377Z,32.35
2022-12-13T07:46:32.005Z,20.05
2022-12-13T07:49:04.967Z,53.35
2022-12-13T07:51:34.999Z,22.33
2022-12-13T07:54:06.953Z,33.70
2022-12-13T07:56:35.242Z,25.38
2022-12-13T07:59:02.824Z,24.25
2022-12-13T08:01:34.690Z,24.17
2022-12-13T08:04:03.553Z,22.63
2022-12-13T08:06:34.455Z,26.98
2022-12-13T08:09:02.164Z,27.85
2022-12-13T08:11:29.581Z,34.47
2022-12-13T08:13:59.731Z,33.55
2022-12-13T08:16:29.339Z,74.13
2022-12-13T08:19:02.191Z,39.33
2022-12-13T08:21:54.059Z,16.88
2022-12-13T08:24:43.976Z,20.00
2022-12-13T08:27:18.515Z,39.78
2022-12-13T08:29:45.834Z,15.93
2022-12-13T08:32:13.665Z,20.90
2022-12-13T08:34:41.882Z,18.80
2022-12-13T08:37:09.091Z,14.52
2022-12-13T08:39:38.359Z,17.38
2022-12-13T08:42:15.097Z,20.08
2022-12-13T08:44:49.914Z,23.38
2022-12-13T08:47:23.461Z,26.33
2022-12-13T08:52:40.810Z,19.15
2022-12-13T08:55:14.233Z,14.35
2022-12-13T08:57:42.909Z,13.18
2022-12-13T09:00:15.849Z,12.05
2022-12-13T09:02:43.535Z,12.63
2022-12-13T09:05:12.929Z,13.80
2022-12-13T09:07:41.666Z,14.48
2022-12-13T09:10:26.466Z,16.90
2022-12-13T09:13:01.376Z,14.88
2022-12-13T09:19:01.843Z,13.68
2022-12-13T09:21:49.432Z,15.48
2022-12-13T09:24:24.142Z,14.00
2022-12-13T09:26:57.345Z,16.05
2022-12-13T09:29:25.047Z,14.00
2022-12-13T09:31:53.489Z,11.70
2022-12-13T09:34:20.743Z,15.65
2022-12-13T09:36:48.101Z,17.25
2022-12-13T09:39:16.304Z,17.30
2022-12-13T09:41:50.595Z,13.65
2022-12-13T09:44:32.544Z,15.10
2022-12-13T10:00:01.240Z,27.60
2022-12-13T10:02:49.336Z,24.95
2022-12-13T10:05:34.165Z,24.35
2022-12-13T10:08:16.754Z,21.88
2022-12-13T10:10:45.093Z,17.73
2022-12-13T10:13:36.623Z,25.73
2022-12-13T10:16:38.627Z,48.63
2022-12-13T10:19:29.369Z,72.57
2022-12-13T10:22:01.610Z,57.08
2022-12-13T10:24:47.723Z,30.63
2022-12-13T10:27:20.415Z,49.33
2022-12-13T10:30:00.211Z,105.72
2022-12-13T10:32:28.140Z,84.78
2022-12-13T10:34:55.719Z,39.22
2022-12-13T10:37:31.316Z,41.72
2022-12-13T10:39:59.354Z,33.70
2022-12-13T10:42:30.666Z,19.05
2022-12-13T10:45:15.565Z,20.33
2022-12-13T10:47:45.544Z,20.67
2022-12-13T10:50:27.088Z,23.20
2022-12-13T10:52:56.004Z,22.98
2022-12-13T10:55:24.060Z,21.25
2022-12-13T10:57:54.069Z,18.25
2022-12-13T11:00:38.977Z,18.33
2022-12-13T11:03:06.849Z,18.63
2022-12-13T11:05:37.957Z,14.18
2022-12-13T11:08:23.825Z,21.80
2022-12-13T11:11:06.453Z,28.73
2022-12-13T11:13:46.308Z,20.83
2022-12-13T11:16:41.841Z,30.73
2022-12-13T11:19:21.145Z,17.42
2022-12-13T11:21:54.433Z,18.35
2022-12-13T11:24:26.026Z,20.33
2022-12-13T11:27:23.055Z,17.40
2022-12-13T11:29:56.530Z,16.27
2022-12-13T11:32:57.462Z,27.67
2022-12-13T11:35:33.201Z,41.30
2022-12-13T11:38:11.235Z,36.45
2022-12-13T11:40:43.012Z,40.53
2022-12-13T11:43:25.600Z,21.27
2022-12-13T11:45:56.477Z,33.50
2022-12-13T11:48:40.132Z,28.75
2022-12-13T11:51:13.520Z,31.25
2022-12-13T11:54:24.081Z,41.38
2022-12-13T11:57:00.765Z,21.33
2022-12-13T11:59:44.673Z,25.00
2022-12-13T12:02:17.425Z,23.13
2022-12-13T12:04:56.607Z,24.48
2022-12-13T12:08:12.651Z,24.33
2022-12-13T12:10:45.654Z,22.92
2022-12-13T12:13:21.458Z,24.95
2022-12-13T12:16:13.123Z,18.00
2022-12-13T12:18:40.290Z,23.05
2022-12-13T12:21:19.407Z,14.18
2022-12-13T12:23:56.110Z,16.10
2022-12-13T12:26:41.265Z,17.55
2022-12-13T12:29:45.310Z,14.23
2022-12-13T12:32:41.479Z,18.00
2022-12-13T12:35:27.246Z,16.95
2022-12-13T12:38:03.497Z,18.83
2022-12-13T12:41:14.642Z,21.17
2022-12-13T12:43:37.768Z,19.17
2022-12-13T12:46:30.986Z,13.73
2022-12-13T12:49:02.714Z,21.05
2022-12-13T12:51:53.907Z,34.47
2022-12-13T12:54:44.182Z,25.65
2022-12-13T12:57:29.961Z,19.58
2022-12-13T13:00:13.220Z,14.95
2022-12-13T13:02:51.695Z,26.02
2022-12-13T13:05:32.578Z,15.23
2022-12-13T13:08:34.724Z,12.43
2022-12-13T13:11:05.317Z,16.90
2022-12-13T13:14:01.868Z,14.25
2022-12-13T13:16:44.609Z,15.38
2022-12-13T13:19:12.151Z,21.77
2022-12-13T13:21:47.361Z,37.00
2022-12-13T13:24:20.195Z,34.22
2022-12-13T13:26:55.629Z,47.97
2022-12-13T13:29:28.645Z,26.42
2022-12-13T13:32:05.155Z,21.40
2022-12-13T13:34:34.882Z,15.90
2022-12-13T13:37:04.007Z,17.70
2022-12-13T13:39:34.085Z,19.00
2022-12-13T13:42:21.102Z,34.72
2022-12-13T13:44:51.665Z,31.13
2022-12-13T13:47:27.324Z,21.67
2022-12-13T13:50:12.605Z,32.67
2022-12-13T13:53:24.472Z,31.30
2022-12-13T13:56:55.084Z,25.65
2022-12-13T14:00:00.748Z,23.92
2022-12-13T14:03:01.367Z,30.00
2022-12-13T14:05:59.718Z,62.00
2022-12-13T14:08:51.229Z,39.78
2022-12-13T14:11:47.266Z,24.30
2022-12-13T14:14:49.999Z,32.83
2022-12-13T14:18:10.315Z,33.28
2022-12-13T14:20:46.778Z,43.13
2022-12-13T14:23:21.835Z,34.15
2022-12-13T14:25:55.558Z,25.90
2022-12-13T14:28:39.537Z,33.58
2022-12-13T14:31:22.313Z,28.33
2022-12-13T14:33:55.918Z,27.85
2022-12-13T14:36:35.598Z,22.73
2022-12-13T14:39:24.834Z,65.68
2022-12-13T14:41:56.754Z,54.28
2022-12-13T14:44:31.176Z,47.72
2022-12-13T14:47:11.126Z,38.00
2022-12-13T14:49:41.722Z,37.42
2022-12-13T14:52:26.730Z,37.80
2022-12-13T14:55:00.730Z,45.65
2022-12-13T14:57:30.647Z,47.80
2022-12-13T15:00:00.382Z,37.85
2022-12-13T15:02:32.989Z,42.58
2022-12-13T15:05:03.889Z,51.05
2022-12-13T15:07:41.718Z,40.10
2022-12-13T15:10:14.999Z,51.17
2022-12-13T15:12:44.008Z,47.47
2022-12-13T15:15:34.650Z,42.50
2022-12-13T15:18:18.543Z,44.28
2022-12-13T15:20:49.897Z,68.50
2022-12-13T15:23:48.602Z,54.78
2022-12-13T15:26:28.509Z,41.42
2022-12-13T15:29:00.803Z,76.40
2022-12-13T15:31:28.834Z,110.78
2022-12-13T15:34:28.738Z,93.88
2022-12-13T15:37:03.108Z,76.03
2022-12-13T15:39:31.260Z,67.82
2022-12-13T15:41:59.595Z,63.25
2022-12-13T15:44:33.999Z,113.07
2022-12-13T15:47:28.784Z,76.28
2022-12-13T15:50:01.372Z,51.37
2022-12-13T15:52:37.097Z,62.83
2022-12-13T15:55:07.257Z,39.83
2022-12-13T15:57:56.131Z,30.58
2022-12-13T16:00:29.076Z,34.55
2022-12-13T16:03:15.219Z,39.25
2022-12-13T16:05:50.086Z,35.90
2022-12-13T16:08:32.409Z,33.35
2022-12-13T16:11:00.412Z,30.15
2022-12-13T16:13:37.263Z,25.60
2022-12-13T16:16:29.832Z,19.50
2022-12-13T16:19:00.837Z,24.58
2022-12-13T16:21:28.678Z,43.35
2022-12-13T16:23:56.231Z,30.08
2022-12-13T16:26:26.574Z,35.45
2022-12-13T16:28:58.641Z,34.72
2022-12-13T16:31:31.289Z,28.52
2022-12-13T16:33:58.803Z,79.80
2022-12-13T16:36:26.370Z,46.47
2022-12-13T16:38:54.135Z,38.03
2022-12-13T16:41:22.287Z,44.33
2022-12-13T16:43:56.042Z,31.30
2022-12-13T16:47:14.154Z,38.63
2022-12-13T16:49:30.429Z,52.00
2022-12-13T16:51:58.205Z,48.95
2022-12-13T16:54:26.545Z,46.22
2022-12-13T16:56:54.504Z,28.38
2022-12-13T16:59:27.223Z,27.17
2022-12-13T17:05:13.356Z,50.05
2022-12-13T17:07:40.847Z,32.13
2022-12-13T17:10:11.923Z,25.73
2022-12-13T17:12:45.043Z,29.92
2022-12-13T17:15:16.164Z,29.75
2022-12-13T17:17:46.404Z,44.88
2022-12-13T17:20:16.849Z,49.30
2022-12-13T17:22:45.587Z,34.03
2022-12-13T17:25:14.069Z,64.95
2022-12-13T17:28:07.718Z,50.83
2022-12-13T17:34:00.699Z,35.30
2022-12-13T17:36:28.256Z,42.65
2022-12-13T17:38:56.023Z,34.05
2022-12-13T17:41:24.560Z,32.17
2022-12-13T17:43:51.955Z,34.17
2022-12-13T17:46:20.023Z,29.88
2022-12-13T17:48:48.686Z,32.95
2022-12-13T17:51:16.383Z,54.45
2022-12-13T17:53:44.682Z,51.90
2022-12-13T17:56:19.384Z,59.53
2022-12-13T17:58:47.887Z,39.15
2022-12-13T18:01:21.651Z,35.63
2022-12-13T18:03:51.363Z,60.42
2022-12-13T18:06:19.331Z,54.30
2022-12-13T18:08:47.919Z,50.58
2022-12-13T18:11:32.950Z,32.85
2022-12-13T18:14:02.599Z,32.22
2022-12-13T18:16:36.277Z,35.78
2022-12-13T18:19:07.054Z,40.08
2022-12-13T18:21:35.808Z,62.15
2022-12-13T18:24:03.262Z,69.30
2022-12-13T18:26:31.222Z,93.20
2022-12-13T18:28:58.442Z,65.13
2022-12-13T18:31:26.215Z,35.72
2022-12-13T18:33:54.640Z,40.90
2022-12-13T18:36:26.262Z,42.92
2022-12-13T18:38:58.095Z,47.53
2022-12-13T18:41:30.773Z,31.73
2022-12-13T18:44:09.418Z,90.60
2022-12-13T18:46:40.429Z,63.13
2022-12-13T18:49:10.660Z,38.38
2022-12-13T18:51:38.166Z,39.53
2022-12-13T18:54:05.282Z,32.67
2022-12-13T18:56:32.645Z,32.80
2022-12-13T18:58:59.715Z,29.30
2022-12-13T19:01:28.029Z,25.08
2022-12-13T19:03:55.394Z,32.53
2022-12-13T19:06:26.209Z,31.23
2022-12-13T19:08:56.329Z,27.85
2022-12-13T19:11:26.109Z,41.45
2022-12-13T19:13:53.408Z,33.72
2022-12-13T19:16:22.798Z,30.30
2022-12-13T19:18:52.567Z,29.73
2022-12-13T19:21:21.678Z,53.45
2022-12-13T19:23:55.868Z,41.33
2022-12-13T19:26:25.399Z,32.78
2022-12-13T19:28:52.511Z,21.35
2022-12-13T19:31:20.714Z,23.52
2022-12-13T19:33:50.096Z,28.88
2022-12-13T19:36:18.572Z,26.35
2022-12-13T19:38:48.045Z,35.42
2022-12-13T19:41:18.680Z,31.60
2022-12-13T19:43:52.565Z,41.22
2022-12-13T19:46:21.146Z,47.33
2022-12-13T19:48:51.346Z,50.10
2022-12-13T19:51:18.893Z,53.33
2022-12-13T19:53:46.320Z,37.63
2022-12-13T19:56:17.711Z,34.45
2022-12-13T19:58:46.765Z,36.30
2022-12-13T20:01:14.890Z,35.20
2022-12-13T20:03:45.230Z,37.83
2022-12-13T20:06:16.065Z,44.35
2022-12-13T20:08:43.439Z,38.53
2022-12-13T20:11:14.925Z,42.63
2022-12-13T20:13:42.299Z,38.70
2022-12-13T20:16:16.161Z,43.25
2022-12-13T20:18:43.286Z,53.22
2022-12-13T20:21:12.858Z,42.05
2022-12-13T20:23:42.003Z,40.83
2022-12-13T20:26:22.010Z,34.72
2022-12-13T20:28:50.224Z,39.95
2022-12-13T20:31:21.356Z,52.13
2022-12-13T20:33:48.855Z,47.28
2022-12-13T20:36:24.648Z,50.35
2022-12-13T20:38:57.278Z,47.33
2022-12-13T20:41:26.710Z,38.55
2022-12-13T20:43:55.960Z,54.33
2022-12-13T20:46:24.971Z,48.13
2022-12-13T20:48:57.515Z,63.35
2022-12-13T20:51:27.835Z,80.57
2022-12-13T20:53:56.943Z,88.13
2022-12-13T20:56:34.388Z,109.22
2022-12-13T20:59:03.606Z,96.75
2022-12-13T21:01:33.436Z,88.28
2022-12-13T21:04:02.149Z,74.85
2022-12-13T21:06:33.114Z,72.72
2022-12-13T21:09:02.808Z,50.33
2022-12-13T21:11:32.988Z,46.53
2022-12-13T21:14:08.899Z,36.30
2022-12-13T21:16:45.674Z,25.05
2022-12-13T21:19:19.417Z,23.58
2022-12-13T21:21:47.638Z,29.85
2022-12-13T21:24:16.068Z,26.80
2022-12-13T21:26:44.789Z,25.17
2022-12-13T21:29:13.196Z,28.55
2022-12-13T21:31:50.652Z,35.25
2022-12-13T21:34:19.315Z,23.65
2022-12-13T21:36:54.401Z,22.50
2022-12-13T21:39:24.715Z,37.78
2022-12-13T21:41:52.470Z,27.88
2022-12-13T21:44:20.236Z,25.98
2022-12-13T21:49:34.729Z,52.60
2022-12-13T21:52:02.106Z,53.40
2022-12-13T21:54:29.158Z,49.60
2022-12-13T21:57:16.176Z,51.55
2022-12-13T21:59:43.402Z,47.85
2022-12-13T22:02:19.286Z,41.00
2022-12-13T22:04:52.825Z,28.92
2022-12-13T22:07:33.756Z,31.65
2022-12-13T22:10:03.527Z,29.33
2022-12-13T22:12:37.098Z,24.23
2022-12-13T22:15:10.625Z,22.95
2022-12-13T22:20:12.640Z,21.88
2022-12-13T22:22:42.646Z,21.98
2022-12-13T22:25:10.495Z,22.17
2022-12-13T22:27:41.276Z,20.17
2022-12-13T22:30:10.544Z,19.55
2022-12-13T22:32:38.082Z,18.85
2022-12-13T22:35:06.859Z,23.17
2022-12-13T22:37:34.213Z,19.83
2022-12-13T22:40:01.199Z,20.80
2022-12-13T22:42:28.687Z,18.17
2022-12-13T22:44:56.966Z,17.25
2022-12-13T22:47:24.675Z,19.15
2022-12-13T22:49:52.422Z,17.42
2022-12-13T22:52:21.529Z,16.98
2022-12-13T22:54:48.613Z,19.48
2022-12-13T22:57:15.971Z,25.75
2022-12-13T22:59:43.162Z,22.73
2022-12-13T23:02:11.138Z,22.23
2022-12-13T23:04:38.706Z,24.58
2022-12-13T23:07:06.175Z,21.80
2022-12-13T23:09:33.263Z,21.83
2022-12-13T23:12:19.015Z,23.50
2022-12-13T23:17:14.653Z,21.83
2022-12-13T23:19:49.989Z,19.15
2022-12-13T23:22:24.279Z,21.10
2022-12-13T23:24:52.695Z,25.35
2022-12-13T23:27:22.286Z,25.17
2022-12-13T23:29:51.101Z,32.92
2022-12-13T23:32:18.785Z,27.27
2022-12-13T23:34:45.887Z,28.20
2022-12-13T23:37:14.080Z,25.63
2022-12-13T23:39:41.667Z,28.20
2022-12-13T23:42:09.078Z,36.65
2022-12-13T23:44:36.480Z,29.13
2022-12-13T23:47:03.878Z,24.10
2022-12-13T23:49:30.966Z,24.88
2022-12-13T23:51:58.370Z,23.50
2022-12-13T23:54:26.737Z,25.92
2022-12-13T23:56:54.186Z,30.27
2022-12-13T23:59:21.194Z,28.30
